createdAt,value
2018-09-17T00:04:03.907Z,1.50
2018-09-17T00:09:14.829Z,1.50
2018-09-17T00:14:18.116Z,1.47
2018-09-17T00:19:21.401Z,1.42
2018-09-17T00:24:24.690Z,2.12
2018-09-17T00:29:28.003Z,1.10
2018-09-17T00:34:31.286Z,1.15
2018-09-17T00:39:34.555Z,1.42
2018-09-17T00:44:37.833Z,1.60
2018-09-17T00:49:41.114Z,1.50
2018-09-17T00:54:44.386Z,1.57
2018-09-17T00:59:47.662Z,1.77
2018-09-17T01:04:50.990Z,1.55
2018-09-17T01:09:54.301Z,1.37
2018-09-17T01:14:57.584Z,1.37
2018-09-17T01:20:00.875Z,1.52
2018-09-17T01:25:04.180Z,1.47
2018-09-17T01:30:07.837Z,1.65
2018-09-17T01:35:11.113Z,1.47
2018-09-17T01:40:14.386Z,1.55
2018-09-17T01:45:17.662Z,1.47
2018-09-17T01:50:20.942Z,1.80
2018-09-17T01:55:24.222Z,1.67
2018-09-17T02:00:27.521Z,1.60
2018-09-17T02:05:30.814Z,1.42
2018-09-17T02:10:34.090Z,1.60
2018-09-17T02:15:37.382Z,1.62
2018-09-17T02:20:40.689Z,1.60
2018-09-17T02:25:43.979Z,1.40
2018-09-17T02:30:47.258Z,1.70
2018-09-17T02:35:50.563Z,1.80
2018-09-17T02:40:53.866Z,1.67
2018-09-17T02:45:57.153Z,1.37
2018-09-17T02:51:00.441Z,1.98
2018-09-17T02:56:03.731Z,1.85
2018-09-17T03:01:07.003Z,1.62
2018-09-17T03:06:10.296Z,1.85
2018-09-17T03:11:13.574Z,1.90
2018-09-17T03:16:16.855Z,1.70
2018-09-17T03:21:20.133Z,1.90
2018-09-17T03:26:23.626Z,2.08
2018-09-17T03:31:26.990Z,1.90
2018-09-17T03:36:30.282Z,2.15
2018-09-17T03:41:33.571Z,2.10
2018-09-17T03:46:36.869Z,1.55
2018-09-17T03:51:40.179Z,1.77
2018-09-17T03:56:43.454Z,1.92
2018-09-17T04:01:46.730Z,1.98
2018-09-17T04:06:50.123Z,1.83
2018-09-17T04:11:53.403Z,2.15
2018-09-17T04:16:56.685Z,1.90
2018-09-17T04:21:59.963Z,2.25
2018-09-17T04:27:03.256Z,1.95
2018-09-17T04:32:06.538Z,2.15
2018-09-17T04:37:09.826Z,2.00
2018-09-17T04:42:13.114Z,2.20
2018-09-17T04:47:16.389Z,2.00
2018-09-17T04:52:19.774Z,1.85
2018-09-17T04:57:23.107Z,2.70
2018-09-17T05:02:26.398Z,2.30
2018-09-17T05:07:29.678Z,2.40
2018-09-17T05:12:32.967Z,2.08
2018-09-17T05:17:36.246Z,2.27
2018-09-17T05:22:39.527Z,2.37
2018-09-17T05:27:42.822Z,2.45
2018-09-17T05:32:46.190Z,2.62
2018-09-17T05:37:49.462Z,2.22
2018-09-17T05:42:52.749Z,2.42
2018-09-17T05:47:56.026Z,2.10
2018-09-17T05:52:59.299Z,2.52
2018-09-17T05:58:02.602Z,2.15
2018-09-17T06:03:05.914Z,1.90
2018-09-17T06:08:09.200Z,2.45
2018-09-17T06:13:12.478Z,2.20
2018-09-17T06:18:15.828Z,2.37
2018-09-17T06:23:19.124Z,2.67
2018-09-17T06:28:22.402Z,1.98
2018-09-17T06:33:25.679Z,1.87
2018-09-17T06:38:28.953Z,2.40
2018-09-17T06:43:32.257Z,1.95
2018-09-17T06:48:35.679Z,1.87
2018-09-17T06:53:38.996Z,2.10
2018-09-17T06:58:42.259Z,1.90
2018-09-17T07:03:45.537Z,2.33
2018-09-17T07:08:48.819Z,2.02
2018-09-17T07:13:52.102Z,2.12
2018-09-17T07:18:55.374Z,1.95
2018-09-17T07:23:58.672Z,1.92
2018-09-17T07:29:02.230Z,1.80
2018-09-17T07:34:05.517Z,1.90
2018-09-17T07:39:10.278Z,2.47
2018-09-17T07:44:13.562Z,2.80
2018-09-17T07:49:16.846Z,2.22
2018-09-17T07:54:20.173Z,2.45
2018-09-17T07:59:23.445Z,1.62
2018-09-17T08:04:26.725Z,2.15
2018-09-17T08:09:30.003Z,1.75
2018-09-17T08:14:33.330Z,1.92
2018-09-17T08:19:36.667Z,1.92
2018-09-17T08:24:39.923Z,1.40
2018-09-17T08:29:43.202Z,1.50
2018-09-17T08:34:46.485Z,2.08
2018-09-17T08:39:49.775Z,1.60
2018-09-17T08:44:53.075Z,1.10
2018-09-17T08:49:56.360Z,1.35
2018-09-17T08:55:05.413Z,1.80
2018-09-17T09:00:14.694Z,1.42
2018-09-17T09:05:23.288Z,1.57
2018-09-17T09:10:32.083Z,1.15
2018-09-17T09:15:39.419Z,1.20
2018-09-17T09:20:42.726Z,1.35
2018-09-17T09:25:45.066Z,1.32
2018-09-17T09:30:48.398Z,1.60
2018-09-17T09:35:51.690Z,1.45
2018-09-17T09:40:55.026Z,1.50
2018-09-17T09:45:58.329Z,1.40
2018-09-17T09:51:01.651Z,1.12
2018-09-17T09:56:04.954Z,1.47
2018-09-17T10:01:12.868Z,1.05
2018-09-17T10:06:16.173Z,1.32
2018-09-17T10:11:24.898Z,1.40
2018-09-17T10:16:28.187Z,1.22
2018-09-17T10:21:31.483Z,1.20
2018-09-17T10:26:34.766Z,1.00
2018-09-17T10:31:38.038Z,1.47
2018-09-17T10:36:41.578Z,1.32
2018-09-17T10:41:44.859Z,1.25
2018-09-17T10:46:48.144Z,1.25
2018-09-17T10:51:51.452Z,1.42
2018-09-17T10:56:54.730Z,1.22
2018-09-17T11:01:58.023Z,1.30
2018-09-17T11:07:01.310Z,1.50
2018-09-17T11:12:04.605Z,1.20
2018-09-17T11:17:07.887Z,1.45
2018-09-17T11:22:11.178Z,1.20
2018-09-17T11:27:14.458Z,1.27
2018-09-17T11:32:17.743Z,1.37
2018-09-17T11:37:21.025Z,1.30
2018-09-17T11:42:24.310Z,1.25
2018-09-17T11:47:27.586Z,1.20
2018-09-17T11:52:30.870Z,1.40
2018-09-17T11:57:34.150Z,1.70
2018-09-17T12:02:37.866Z,1.30
2018-09-17T12:07:42.921Z,1.40
2018-09-17T12:12:46.202Z,1.52
2018-09-17T12:17:49.603Z,1.30
2018-09-17T12:22:52.884Z,1.40
2018-09-17T12:27:56.267Z,1.00
2018-09-17T12:32:59.570Z,1.20
2018-09-17T12:38:02.866Z,1.00
2018-09-17T12:43:06.176Z,1.20
2018-09-17T12:48:09.467Z,1.20
2018-09-17T12:53:12.763Z,1.10
2018-09-17T12:58:16.050Z,1.15
2018-09-17T13:03:19.383Z,1.75
2018-09-17T13:08:22.647Z,1.50
2018-09-17T13:13:25.926Z,2.52
2018-09-17T13:18:29.208Z,2.08
2018-09-17T13:23:32.494Z,2.05
2018-09-17T13:28:35.783Z,2.00
2018-09-17T13:33:39.126Z,2.42
2018-09-17T13:38:42.451Z,2.65
2018-09-17T13:43:45.760Z,3.12
2018-09-17T13:48:49.042Z,1.77
2018-09-17T13:53:52.330Z,2.95
2018-09-17T13:58:55.631Z,2.50
2018-09-17T14:03:58.928Z,2.37
2018-09-17T14:09:02.394Z,2.10
2018-09-17T14:14:05.802Z,2.27
2018-09-17T14:19:09.092Z,1.57
2018-09-17T14:24:13.239Z,2.10
2018-09-17T14:29:16.542Z,1.92
2018-09-17T14:34:19.869Z,1.60
2018-09-17T14:39:23.154Z,1.82
2018-09-17T14:44:26.462Z,1.95
2018-09-17T14:49:29.770Z,1.80
2018-09-17T14:54:33.127Z,2.05
2018-09-17T14:59:36.364Z,1.57
2018-09-17T15:04:39.833Z,1.87
2018-09-17T15:09:43.677Z,1.42
2018-09-17T15:14:47.028Z,1.92
2018-09-17T15:19:50.302Z,1.75
2018-09-17T15:24:53.604Z,1.45
2018-09-17T15:29:56.894Z,1.37
2018-09-17T15:35:00.190Z,1.47
2018-09-17T15:40:03.558Z,1.80
2018-09-17T15:45:07.231Z,1.62
2018-09-17T15:50:10.551Z,1.62
2018-09-17T15:55:13.802Z,1.90
2018-09-17T16:00:17.263Z,2.10
2018-09-17T16:05:20.534Z,2.10
2018-09-17T16:10:23.835Z,1.83
2018-09-17T16:15:27.126Z,2.20
2018-09-17T16:20:30.435Z,2.72
2018-09-17T16:25:33.725Z,2.33
2018-09-17T16:30:37.015Z,2.10
2018-09-17T16:35:40.294Z,2.87
2018-09-17T16:40:43.598Z,2.22
2018-09-17T16:45:46.886Z,2.77
2018-09-17T16:50:50.307Z,2.47
2018-09-17T16:55:53.614Z,2.08
2018-09-17T17:00:57.013Z,2.60
2018-09-17T17:06:00.415Z,2.10
2018-09-17T17:11:03.699Z,2.17
2018-09-17T17:16:07.001Z,1.95
2018-09-17T17:21:10.292Z,2.40
2018-09-17T17:26:13.593Z,2.45
2018-09-17T17:31:16.890Z,2.40
2018-09-17T17:36:20.198Z,1.87
2018-09-17T17:41:24.350Z,2.30
2018-09-17T17:46:27.661Z,2.20
2018-09-17T17:51:30.950Z,2.50
2018-09-17T17:56:34.233Z,2.45
2018-09-17T18:01:37.854Z,1.90
2018-09-17T18:06:42.255Z,2.80
2018-09-17T18:11:45.751Z,2.58
2018-09-17T18:16:49.059Z,2.30
2018-09-17T18:21:52.330Z,2.42
2018-09-17T18:26:55.681Z,2.75
2018-09-17T18:31:59.087Z,3.00
2018-09-17T18:37:02.592Z,2.37
2018-09-17T18:42:05.898Z,2.65
2018-09-17T18:47:09.212Z,3.30
2018-09-17T18:52:12.492Z,2.85
2018-09-17T18:57:15.958Z,2.50
2018-09-17T19:02:19.300Z,2.90
2018-09-17T19:07:22.584Z,3.12
2018-09-17T19:12:26.090Z,2.55
2018-09-17T19:17:34.870Z,3.05
2018-09-17T19:22:43.571Z,2.83
2018-09-17T19:27:52.335Z,3.22
2018-09-17T19:32:55.771Z,2.70
2018-09-17T19:38:04.506Z,2.92
2018-09-17T19:43:08.307Z,3.02
2018-09-17T19:48:12.013Z,3.15
2018-09-17T19:53:15.491Z,2.45
2018-09-17T19:58:24.376Z,2.60
2018-09-17T20:03:27.851Z,3.35
2018-09-17T20:08:31.155Z,3.30
2018-09-17T20:13:34.790Z,3.50
2018-09-17T20:18:38.075Z,2.90
2018-09-17T20:23:41.362Z,3.05
2018-09-17T20:28:44.645Z,3.50
2018-09-17T20:33:47.931Z,3.70
2018-09-17T20:38:51.271Z,3.50
2018-09-17T20:43:54.643Z,3.65
2018-09-17T20:48:58.647Z,3.55
2018-09-17T20:54:01.939Z,3.90
2018-09-17T20:59:05.247Z,3.42
2018-09-17T21:04:08.538Z,3.85
2018-09-17T21:09:12.678Z,3.50
2018-09-17T21:14:15.965Z,3.60
2018-09-17T21:19:19.292Z,3.55
2018-09-17T21:24:22.595Z,3.25
2018-09-17T21:29:25.868Z,3.08
2018-09-17T21:34:29.190Z,3.10
2018-09-17T21:39:32.527Z,3.83
2018-09-17T21:44:35.819Z,3.40
2018-09-17T21:49:39.114Z,3.50
2018-09-17T21:54:42.544Z,3.83
2018-09-17T21:59:45.826Z,3.50
2018-09-17T22:04:49.113Z,3.40
2018-09-17T22:09:52.406Z,3.85
2018-09-17T22:14:55.790Z,3.42
2018-09-17T22:19:59.066Z,3.40
2018-09-17T22:25:02.490Z,3.92
2018-09-17T22:30:06.618Z,3.47
2018-09-17T22:35:09.934Z,3.45
2018-09-17T22:40:13.215Z,3.40
2018-09-17T22:45:16.522Z,3.20
2018-09-17T22:50:19.810Z,3.80
2018-09-17T22:55:23.095Z,3.10
2018-09-17T23:00:26.375Z,3.00
2018-09-17T23:05:29.654Z,3.15
2018-09-17T23:10:32.930Z,3.05
2018-09-17T23:15:36.201Z,3.20
2018-09-17T23:20:39.487Z,2.92
2018-09-17T23:25:42.767Z,3.33
2018-09-17T23:30:46.053Z,3.35
2018-09-17T23:35:49.336Z,2.98
2018-09-17T23:40:52.617Z,3.08
2018-09-17T23:45:55.994Z,3.17
2018-09-17T23:50:59.438Z,3.15
2018-09-17T23:56:02.720Z,3.25
